Time;durP1;ratioP1;P1;durP2;ratioP2;P2;SDS_P1;SDS_P2;PMS_P1;PMS_P2;Temp;Humidity;BMP_temperature;BMP_pressure;BME280_temperature;BME280_humidity;BME280_pressure;Samples;Min_cycle;Max_cycle;Signal;HPM_P1;HPM_P2
2021/07/10 00:00:55;;;;;;;17.27;12.02;;;18.80;84.40;;;;;;5068974;28;20039;-77
2021/07/10 00:03:21;;;;;;;19.83;12.70;;;18.80;84.60;;;;;;5019890;28;20026;-77
2021/07/10 00:05:46;;;;;;;20.95;12.05;;;18.80;84.70;;;;;;5031920;28;20025;-77
2021/07/10 00:08:12;;;;;;;20.15;12.43;;;18.80;84.90;;;;;;5031680;28;20030;-77
2021/07/10 00:10:38;;;;;;;18.13;11.02;;;18.70;85.10;;;;;;5033058;28;20036;-77
2021/07/10 00:13:04;;;;;;;17.45;11.02;;;18.70;85.90;;;;;;5035874;28;20250;-77
2021/07/10 00:15:29;;;;;;;20.85;13.15;;;18.70;85.50;;;;;;5037085;28;20057;-77
2021/07/10 00:17:55;;;;;;;17.88;11.32;;;18.80;85.60;;;;;;5037093;28;20029;-77
2021/07/10 00:20:22;;;;;;;17.88;11.40;;;18.70;85.60;;;;;;5035569;28;20022;-77
2021/07/10 00:22:48;;;;;;;18.23;11.18;;;18.70;85.70;;;;;;5036906;28;20022;-77
2021/07/10 00:25:15;;;;;;;17.73;12.23;;;18.70;85.80;;;;;;5035770;28;20034;-77
2021/07/10 00:27:42;;;;;;;18.65;12.10;;;18.60;85.90;;;;;;5037345;28;20473;-77
2021/07/10 00:30:09;;;;;;;21.23;12.35;;;18.60;85.90;;;;;;5035563;28;20051;-77
2021/07/10 00:32:36;;;;;;;16.40;11.68;;;18.60;86.70;;;;;;5036976;28;20087;-77
2021/07/10 00:35:01;;;;;;;18.33;12.02;;;18.60;86.20;;;;;;5035623;28;20036;-77
2021/07/10 00:37:27;;;;;;;19.80;12.73;;;18.60;87.00;;;;;;5036737;28;20033;-76
2021/07/10 00:39:53;;;;;;;18.08;12.60;;;18.50;86.50;;;;;;5035146;28;20122;-77
2021/07/10 00:42:21;;;;;;;18.17;12.77;;;18.50;86.60;;;;;;5035423;28;20057;-77
2021/07/10 00:44:48;;;;;;;17.83;12.15;;;18.40;86.70;;;;;;5035480;28;20025;-74
2021/07/10 00:47:13;;;;;;;20.75;12.88;;;18.40;86.90;;;;;;5036712;28;20037;-74
2021/07/10 00:49:39;;;;;;;23.83;14.05;;;18.40;87.10;;;;;;5035786;28;20025;-74
2021/07/10 00:52:05;;;;;;;18.90;12.65;;;18.40;87.20;;;;;;5036939;28;20071;-74
2021/07/10 00:54:32;;;;;;;20.80;12.50;;;18.30;87.30;;;;;;5035401;28;20030;-74
2021/07/10 00:56:59;;;;;;;20.77;13.13;;;18.30;87.40;;;;;;5035400;28;20087;-74
2021/07/10 00:59:27;;;;;;;19.90;13.40;;;18.30;87.60;;;;;;5036489;28;20034;-74
2021/07/10 01:01:52;;;;;;;21.88;13.68;;;18.20;87.70;;;;;;5035565;28;20083;-74
2021/07/10 01:04:18;;;;;;;19.63;13.57;;;18.20;87.90;;;;;;5034930;28;20026;-74
2021/07/10 01:06:44;;;;;;;20.05;12.30;;;18.30;88.00;;;;;;5036100;28;20060;-74
2021/07/10 01:09:10;;;;;;;22.25;14.57;;;18.20;88.10;;;;;;5018710;28;20481;-74
2021/07/10 01:11:36;;;;;;;22.05;12.98;;;18.30;88.30;;;;;;5036046;28;20096;-75
2021/07/10 01:14:02;;;;;;;20.33;11.48;;;18.30;88.30;;;;;;5036219;28;20029;-74
2021/07/10 01:16:28;;;;;;;21.88;13.57;;;18.30;88.50;;;;;;5036573;28;20342;-74
2021/07/10 01:18:53;;;;;;;17.40;12.40;;;18.20;88.80;;;;;;5034847;28;20037;-74
2021/07/10 01:21:19;;;;;;;20.00;13.25;;;18.20;89.00;;;;;;5035113;28;20033;-74
2021/07/10 01:23:45;;;;;;;17.17;11.82;;;18.20;89.20;;;;;;5033762;28;20156;-74
2021/07/10 01:26:10;;;;;;;16.65;11.02;;;18.20;89.40;;;;;;5036273;28;20461;-74
2021/07/10 01:28:36;;;;;;;16.83;12.13;;;18.20;89.40;;;;;;5036319;28;20029;-74
2021/07/10 01:31:02;;;;;;;17.60;12.15;;;18.20;89.50;;;;;;5034730;28;20037;-74
2021/07/10 01:33:28;;;;;;;17.38;11.77;;;18.20;89.70;;;;;;5018192;28;20033;-74
2021/07/10 01:35:53;;;;;;;21.50;13.02;;;18.20;89.80;;;;;;5034570;28;20036;-75
2021/07/10 01:38:19;;;;;;;17.70;12.27;;;18.20;89.80;;;;;;5034249;28;20048;-74
2021/07/10 01:40:45;;;;;;;20.23;13.57;;;18.20;89.80;;;;;;5017864;28;20045;-74
2021/07/10 01:43:11;;;;;;;18.88;13.13;;;18.20;89.90;;;;;;5035777;28;20060;-74
2021/07/10 01:45:38;;;;;;;20.15;13.77;;;18.20;89.90;;;;;;5034737;28;20105;-74
2021/07/10 01:48:05;;;;;;;24.85;15.50;;;18.10;89.80;;;;;;5034683;28;20026;-75
2021/07/10 01:50:30;;;;;;;19.80;14.60;;;18.10;89.90;;;;;;5035844;28;20018;-75
2021/07/10 01:52:57;;;;;;;19.63;13.93;;;18.10;90.00;;;;;;5035588;28;20095;-74
2021/07/10 01:55:23;;;;;;;25.52;15.07;;;18.10;90.00;;;;;;5035380;28;20053;-74
2021/07/10 01:57:51;;;;;;;22.35;15.25;;;18.00;90.10;;;;;;5035474;28;20414;-74
2021/07/10 02:00:21;;;;;;;22.98;14.57;;;18.00;90.20;;;;;;5035260;28;20044;-75
2021/07/10 02:02:47;;;;;;;23.13;15.27;;;18.00;90.30;;;;;;5035557;28;20025;-77
2021/07/10 02:05:14;;;;;;;20.42;15.40;;;18.00;90.40;;;;;;5035368;28;20052;-77
2021/07/10 02:07:39;;;;;;;25.27;15.75;;;18.00;90.40;;;;;;5035216;28;20097;-77
2021/07/10 02:10:08;;;;;;;26.10;14.85;;;17.90;90.40;;;;;;5035363;28;20187;-77
2021/07/10 02:12:34;;;;;;;22.67;16.13;;;17.90;90.50;;;;;;5035099;28;20504;-76
2021/07/10 02:14:59;;;;;;;27.55;17.63;;;17.90;90.50;;;;;;5034128;28;20030;-77
2021/07/10 02:17:25;;;;;;;24.67;16.88;;;17.90;90.50;;;;;;5035451;28;20029;-77
2021/07/10 02:19:50;;;;;;;25.63;16.58;;;17.80;90.50;;;;;;5035328;28;20037;-77
2021/07/10 02:22:16;;;;;;;24.20;17.50;;;17.80;90.80;;;;;;5034079;28;20728;-77
2021/07/10 02:24:42;;;;;;;29.75;19.83;;;17.80;90.50;;;;;;5034037;28;20053;-77
2021/07/10 02:27:07;;;;;;;25.60;17.33;;;17.80;90.50;;;;;;5034815;28;20075;-77
2021/07/10 02:29:33;;;;;;;28.52;17.63;;;17.80;90.50;;;;;;5034060;28;20026;-77
2021/07/10 02:31:59;;;;;;;26.20;16.92;;;17.70;90.50;;;;;;5034684;28;20039;-77
2021/07/10 02:34:24;;;;;;;24.95;17.60;;;17.70;90.80;;;;;;5033497;28;20040;-77
2021/07/10 02:36:50;;;;;;;30.80;19.30;;;17.70;90.60;;;;;;5033626;28;20033;-76
2021/07/10 02:39:16;;;;;;;25.60;17.92;;;17.70;90.70;;;;;;5034964;28;20030;-77
2021/07/10 02:41:41;;;;;;;27.85;18.48;;;17.60;90.80;;;;;;5034796;28;20069;-77
2021/07/10 02:44:07;;;;;;;27.10;18.98;;;17.60;90.90;;;;;;5033539;28;20078;-77
2021/07/10 02:46:33;;;;;;;29.65;20.05;;;17.50;90.90;;;;;;5034826;28;20390;-77
2021/07/10 02:48:59;;;;;;;27.13;19.67;;;17.50;91.00;;;;;;5033287;28;20026;-77
2021/07/10 02:51:28;;;;;;;33.97;20.88;;;17.50;91.10;;;;;;5034380;28;20037;-76
2021/07/10 02:53:55;;;;;;;29.95;19.52;;;17.50;91.10;;;;;;5034694;28;20032;-77
2021/07/10 02:56:21;;;;;;;34.65;21.90;;;17.40;91.10;;;;;;5033471;28;20104;-76
2021/07/10 02:58:47;;;;;;;31.35;20.02;;;17.40;91.20;;;;;;5017093;28;20048;-77
2021/07/10 03:01:13;;;;;;;31.33;19.20;;;17.40;91.20;;;;;;5033134;28;20021;-77
2021/07/10 03:03:39;;;;;;;26.13;17.38;;;17.40;91.30;;;;;;5034379;28;20505;-76
2021/07/10 03:06:04;;;;;;;22.55;16.75;;;17.40;91.30;;;;;;5033393;28;20469;-77
2021/07/10 03:08:30;;;;;;;24.58;16.77;;;17.30;91.30;;;;;;5033587;28;20359;-76
2021/07/10 03:10:56;;;;;;;23.83;15.75;;;17.30;91.40;;;;;;5034215;28;20104;-77
2021/07/10 03:13:21;;;;;;;23.23;15.90;;;17.30;91.40;;;;;;5034239;28;20025;-76
2021/07/10 03:15:47;;;;;;;27.40;16.98;;;17.30;91.40;;;;;;5033273;28;20029;-77
2021/07/10 03:18:13;;;;;;;24.75;16.88;;;17.30;91.50;;;;;;5034444;28;20048;-77
2021/07/10 03:20:38;;;;;;;24.67;16.17;;;17.30;91.50;;;;;;5033961;28;20040;-77
2021/07/10 03:23:04;;;;;;;24.05;15.80;;;17.30;91.60;;;;;;5032654;28;20029;-77
2021/07/10 03:25:30;;;;;;;24.65;16.98;;;17.20;91.60;;;;;;5033140;28;20028;-77
2021/07/10 03:27:57;;;;;;;26.50;16.75;;;17.20;91.60;;;;;;5032966;28;20017;-77
2021/07/10 03:30:24;;;;;;;25.75;15.70;;;17.20;91.60;;;;;;5033766;28;20067;-77
2021/07/10 03:32:50;;;;;;;28.20;17.02;;;17.20;91.70;;;;;;5032800;28;20365;-77
2021/07/10 03:35:17;;;;;;;25.40;16.90;;;17.20;91.70;;;;;;5033995;28;20021;-77
2021/07/10 03:37:43;;;;;;;25.52;15.90;;;17.20;91.70;;;;;;5034081;28;20030;-77
2021/07/10 03:40:11;;;;;;;27.88;17.23;;;17.20;91.80;;;;;;5032235;28;20059;-77
2021/07/10 03:42:38;;;;;;;23.63;16.33;;;17.20;91.80;;;;;;5031942;28;20038;-77
2021/07/10 03:45:06;;;;;;;25.63;16.52;;;17.20;91.80;;;;;;5032572;28;20096;-77
2021/07/10 03:47:32;;;;;;;24.17;17.13;;;17.20;91.90;;;;;;5033119;28;20079;-77
2021/07/10 03:49:58;;;;;;;23.23;15.77;;;17.10;91.90;;;;;;5033687;28;20038;-77
2021/07/10 03:52:23;;;;;;;24.17;16.80;;;17.20;92.00;;;;;;5032471;28;20108;-77
2021/07/10 03:54:49;;;;;;;23.13;16.27;;;17.10;92.00;;;;;;5033514;28;20033;-77
2021/07/10 03:57:14;;;;;;;26.77;15.98;;;17.20;92.00;;;;;;5033997;28;20037;-77
2021/07/10 03:59:40;;;;;;;25.10;16.00;;;17.20;92.10;;;;;;5033365;28;20039;-77
2021/07/10 04:02:06;;;;;;;25.83;17.23;;;17.10;92.10;;;;;;5036346;28;20037;-77
2021/07/10 04:04:31;;;;;;;25.98;17.73;;;17.20;92.10;;;;;;5033440;28;20087;-77
2021/07/10 04:06:57;;;;;;;22.27;16.23;;;17.20;92.20;;;;;;5031809;28;20083;-77
2021/07/10 04:09:23;;;;;;;29.40;17.65;;;17.10;92.10;;;;;;5015945;28;20038;-77
2021/07/10 04:11:49;;;;;;;23.23;16.27;;;17.20;92.20;;;;;;5032229;28;20034;-77
2021/07/10 04:14:15;;;;;;;26.48;17.73;;;17.20;92.20;;;;;;5033239;28;20030;-77
2021/07/10 04:16:40;;;;;;;31.60;18.33;;;17.20;92.30;;;;;;5031966;28;20029;-77
2021/07/10 04:19:06;;;;;;;26.88;16.58;;;17.20;92.30;;;;;;5015385;28;20033;-77
2021/07/10 04:21:31;;;;;;;25.42;16.83;;;17.20;92.30;;;;;;5033360;28;20109;-74
2021/07/10 04:23:57;;;;;;;25.52;15.50;;;17.20;92.30;;;;;;5033396;28;20441;-74
2021/07/10 04:26:23;;;;;;;27.10;17.55;;;17.20;92.30;;;;;;5031753;28;20029;-75
2021/07/10 04:28:48;;;;;;;29.05;17.92;;;17.30;92.40;;;;;;5032098;28;20029;-75
2021/07/10 04:31:14;;;;;;;27.20;17.42;;;17.20;92.40;;;;;;5031902;28;20039;-75
2021/07/10 04:33:40;;;;;;;29.23;17.90;;;17.30;92.40;;;;;;5032187;28;20083;-74
2021/07/10 04:36:05;;;;;;;23.65;15.27;;;17.30;92.40;;;;;;5031865;28;20485;-74
2021/07/10 04:38:31;;;;;;;19.95;14.18;;;17.40;92.50;;;;;;5031952;28;20029;-74
2021/07/10 04:40:57;;;;;;;24.08;14.55;;;17.30;92.40;;;;;;5031607;28;20045;-74
2021/07/10 04:43:23;;;;;;;20.63;13.45;;;17.30;92.40;;;;;;5015465;28;20466;-74
2021/07/10 04:45:49;;;;;;;23.80;14.93;;;17.30;92.30;;;;;;5032004;28;20033;-74
2021/07/10 04:48:14;;;;;;;23.92;16.30;;;17.30;92.30;;;;;;5015636;28;20035;-74
2021/07/10 04:50:40;;;;;;;24.58;16.48;;;17.30;92.30;;;;;;5032183;28;20378;-74
2021/07/10 04:53:06;;;;;;;26.05;16.17;;;17.20;92.30;;;;;;5031946;28;20433;-75
2021/07/10 04:55:31;;;;;;;24.98;16.35;;;17.20;92.30;;;;;;5033248;28;20057;-75
2021/07/10 04:57:57;;;;;;;24.77;16.65;;;17.20;92.40;;;;;;5016288;28;20106;-75
2021/07/10 05:00:24;;;;;;;28.60;18.85;;;17.30;92.40;;;;;;5035506;28;20493;-75
2021/07/10 05:02:50;;;;;;;26.88;17.75;;;17.30;92.40;;;;;;5035346;28;20116;-75
2021/07/10 05:05:16;;;;;;;25.25;16.70;;;17.30;92.40;;;;;;5036627;28;20052;-75
2021/07/10 05:07:42;;;;;;;26.77;16.45;;;17.30;92.50;;;;;;5035415;28;20026;-74
2021/07/10 05:10:08;;;;;;;30.40;17.27;;;17.30;92.50;;;;;;5018842;28;20037;-74
2021/07/10 05:12:34;;;;;;;33.33;22.63;;;17.30;92.50;;;;;;5035200;28;20095;-75
2021/07/10 05:14:59;;;;;;;34.78;25.58;;;17.30;92.50;;;;;;5018763;28;20025;-75
2021/07/10 05:17:25;;;;;;;34.92;25.98;;;17.30;92.50;;;;;;5036522;28;20080;-74
2021/07/10 05:19:51;;;;;;;36.60;24.40;;;17.40;92.40;;;;;;5034954;28;20034;-74
2021/07/10 05:22:17;;;;;;;34.30;24.40;;;17.40;92.40;;;;;;5036157;28;20100;-74
2021/07/10 05:24:43;;;;;;;35.42;26.10;;;17.40;92.40;;;;;;5035986;28;20021;-74
2021/07/10 05:27:09;;;;;;;42.10;29.20;;;17.50;92.40;;;;;;5034655;28;20022;-75
2021/07/10 05:29:35;;;;;;;36.80;27.98;;;17.50;92.30;;;;;;5034608;28;20374;-75
2021/07/10 05:32:00;;;;;;;38.03;28.75;;;17.50;92.30;;;;;;5034675;28;20034;-74
2021/07/10 05:34:26;;;;;;;34.35;26.58;;;17.50;92.30;;;;;;5034795;28;20094;-74
2021/07/10 05:36:53;;;;;;;36.42;26.35;;;17.50;92.30;;;;;;5034841;28;20033;-74
2021/07/10 05:39:18;;;;;;;38.00;27.20;;;17.60;92.30;;;;;;5035390;28;20033;-74
2021/07/10 05:41:44;;;;;;;34.60;27.42;;;17.60;92.30;;;;;;5034186;28;20069;-74
2021/07/10 05:44:09;;;;;;;39.03;28.35;;;17.60;92.20;;;;;;5040047;28;20083;-74
2021/07/10 05:46:35;;;;;;;40.03;29.40;;;17.70;92.20;;;;;;5032705;28;20033;-75
2021/07/10 05:49:01;;;;;;;39.70;30.63;;;17.70;92.20;;;;;;5054020;28;20088;-75
2021/07/10 05:51:26;;;;;;;42.50;31.58;;;17.80;92.20;;;;;;5044331;28;20029;-75
2021/07/10 05:53:52;;;;;;;41.70;31.05;;;17.80;92.10;;;;;;5041724;28;20361;-75
2021/07/10 05:56:18;;;;;;;40.38;30.10;;;17.90;92.00;;;;;;5047617;28;20060;-75
2021/07/10 05:58:44;;;;;;;40.15;31.33;;;18.00;92.00;;;;;;5053578;28;20075;-74
2021/07/10 06:01:10;;;;;;;46.40;33.88;;;18.10;92.00;;;;;;5053117;28;20029;-74
2021/07/10 06:03:36;;;;;;;64.28;38.17;;;18.20;92.00;;;;;;5046550;28;20108;-74
2021/07/10 06:06:02;;;;;;;48.10;36.90;;;18.20;91.80;;;;;;5060818;28;20035;-74
2021/07/10 06:08:28;;;;;;;50.70;37.75;;;18.30;91.70;;;;;;5061651;28;20014;-74
2021/07/10 06:10:53;;;;;;;48.97;37.40;;;18.40;91.70;;;;;;5055196;28;20036;-74
2021/07/10 06:13:19;;;;;;;50.28;34.67;;;18.50;91.60;;;;;;5056548;28;20047;-76
2021/07/10 06:15:45;;;;;;;50.60;37.42;;;18.50;91.60;;;;;;5038658;28;20113;-74
2021/07/10 06:18:10;;;;;;;51.00;36.13;;;18.50;91.40;;;;;;5035189;28;20018;-74
2021/07/10 06:20:37;;;;;;;52.70;37.13;;;18.60;91.40;;;;;;5062080;28;20032;-74
2021/07/10 06:23:05;;;;;;;51.50;37.65;;;18.60;91.30;;;;;;5061417;28;20013;-74
2021/07/10 06:25:35;;;;;;;44.28;33.10;;;18.70;91.30;;;;;;5064150;28;20047;-73
2021/07/10 06:28:01;;;;;;;45.90;32.42;;;18.70;91.20;;;;;;5054940;28;20025;-74
2021/07/10 06:30:27;;;;;;;45.97;33.80;;;18.80;91.20;;;;;;5054679;28;20370;-74
2021/07/10 06:32:52;;;;;;;45.13;33.55;;;18.80;91.10;;;;;;5036794;28;20036;-73
2021/07/10 06:35:18;;;;;;;47.83;35.75;;;18.80;91.10;;;;;;5036880;28;20029;-74
2021/07/10 06:37:44;;;;;;;42.20;32.47;;;18.80;91.00;;;;;;5053285;28;20128;-73
2021/07/10 06:40:13;;;;;;;45.67;31.38;;;18.90;91.00;;;;;;5054658;28;20037;-74
2021/07/10 06:42:39;;;;;;;46.25;33.90;;;18.90;90.90;;;;;;5054495;28;20571;-75
2021/07/10 06:45:07;;;;;;;48.83;35.50;;;19.00;90.90;;;;;;5037024;28;20029;-75
2021/07/10 06:47:33;;;;;;;44.10;33.95;;;19.00;90.80;;;;;;5054524;28;20017;-74
2021/07/10 06:49:59;;;;;;;40.08;30.55;;;19.00;90.80;;;;;;5054616;28;20124;-74
2021/07/10 06:52:25;;;;;;;39.72;29.38;;;19.10;90.70;;;;;;5036719;28;20384;-74
2021/07/10 06:54:50;;;;;;;40.00;29.50;;;19.10;90.50;;;;;;5053015;28;20033;-75
2021/07/10 06:57:16;;;;;;;41.55;29.00;;;19.10;90.40;;;;;;5053151;28;20377;-74
2021/07/10 06:59:41;;;;;;;40.70;28.10;;;19.10;90.30;;;;;;5052977;28;20040;-75
2021/07/10 07:02:07;;;;;;;40.10;29.13;;;19.20;90.20;;;;;;5052992;28;20033;-75
2021/07/10 07:04:33;;;;;;;38.00;27.83;;;19.30;90.20;;;;;;5054361;28;20029;-74
2021/07/10 07:06:59;;;;;;;36.55;26.88;;;19.30;90.10;;;;;;5054106;28;20373;-76
2021/07/10 07:09:24;;;;;;;37.08;28.08;;;19.40;90.10;;;;;;5036133;28;20021;-74
2021/07/10 07:11:51;;;;;;;39.45;27.45;;;19.40;89.80;;;;;;5036044;28;20489;-74
2021/07/10 07:14:18;;;;;;;35.85;25.73;;;19.40;89.30;;;;;;5052702;28;20029;-74
2021/07/10 07:16:43;;;;;;;35.30;25.05;;;19.50;89.10;;;;;;5052464;28;20096;-74
2021/07/10 07:19:09;;;;;;;33.08;24.20;;;19.50;88.80;;;;;;5053666;28;20112;-74
2021/07/10 07:21:35;;;;;;;35.72;24.95;;;19.50;88.20;;;;;;5052213;28;20037;-74
2021/07/10 07:24:00;;;;;;;29.95;21.92;;;19.50;87.90;;;;;;5053945;28;20021;-74
2021/07/10 07:26:26;;;;;;;32.25;22.20;;;19.50;87.80;;;;;;5053964;28;20102;-74
2021/07/10 07:28:52;;;;;;;29.27;22.02;;;19.60;87.50;;;;;;5052444;28;20117;-75
2021/07/10 07:31:18;;;;;;;29.17;22.25;;;19.70;87.30;;;;;;5052420;28;20044;-75
2021/07/10 07:33:43;;;;;;;29.23;22.75;;;19.70;87.00;;;;;;5052651;28;20033;-75
2021/07/10 07:36:09;;;;;;;29.85;22.15;;;19.80;86.80;;;;;;5052321;28;20025;-73
2021/07/10 07:38:36;;;;;;;35.13;22.63;;;19.90;86.50;;;;;;5051997;28;20035;-76
2021/07/10 07:41:07;;;;;;;28.48;21.17;;;19.90;87.00;;;;;;5035612;28;20504;-75
2021/07/10 07:43:33;;;;;;;31.23;22.20;;;20.10;87.00;;;;;;5052274;28;20075;-74
2021/07/10 07:45:59;;;;;;;27.55;19.88;;;20.20;85.90;;;;;;5053341;28;20033;-74
2021/07/10 07:48:25;;;;;;;26.73;20.23;;;20.20;85.50;;;;;;5035652;28;20099;-73
2021/07/10 07:50:52;;;;;;;29.38;21.13;;;20.30;85.10;;;;;;5053641;28;20033;-74
2021/07/10 07:53:19;;;;;;;27.80;19.02;;;20.30;84.90;;;;;;5053002;28;20453;-72
2021/07/10 07:55:46;;;;;;;27.60;21.50;;;20.40;84.70;;;;;;5052339;28;20021;-75
2021/07/10 07:58:12;;;;;;;23.00;17.95;;;20.50;85.10;;;;;;5053463;28;20362;-73
2021/07/10 08:00:38;;;;;;;21.88;17.20;;;20.50;84.30;;;;;;5053289;28;20039;-73
2021/07/10 08:03:03;;;;;;;22.10;17.30;;;20.50;83.50;;;;;;5053468;28;20047;-73
2021/07/10 08:05:30;;;;;;;27.15;18.75;;;20.60;83.10;;;;;;5035210;28;20025;-73
2021/07/10 08:07:55;;;;;;;23.35;16.60;;;20.60;82.80;;;;;;5053113;28;20052;-74
2021/07/10 08:10:21;;;;;;;20.70;14.45;;;20.80;82.70;;;;;;5051854;28;20091;-73
2021/07/10 08:12:50;;;;;;;22.35;16.25;;;20.80;81.80;;;;;;5051715;28;20024;-72
2021/07/10 08:15:20;;;;;;;21.15;13.65;;;20.80;81.20;;;;;;5053149;28;20479;-73
2021/07/10 08:17:48;;;;;;;18.48;12.63;;;20.90;80.90;;;;;;5051492;28;20120;-73
2021/07/10 08:20:16;;;;;;;20.85;13.30;;;20.90;80.50;;;;;;5052873;28;20060;-73
2021/07/10 08:22:43;;;;;;;20.27;14.25;;;20.90;80.30;;;;;;5051848;28;20097;-74
2021/07/10 08:25:10;;;;;;;18.83;13.80;;;20.90;79.70;;;;;;5053125;28;20037;-72
2021/07/10 08:27:36;;;;;;;22.38;16.25;;;21.00;79.50;;;;;;5054172;28;20021;-74
2021/07/10 08:30:04;;;;;;;23.10;14.10;;;21.00;78.60;;;;;;5055637;28;20036;-73
2021/07/10 08:32:29;;;;;;;17.40;12.82;;;21.00;78.40;;;;;;5064489;28;20472;-74
2021/07/10 08:34:55;;;;;;;17.10;12.23;;;21.00;78.10;;;;;;5069807;28;20048;-72
2021/07/10 08:37:21;;;;;;;18.85;12.02;;;21.00;77.60;;;;;;5075849;28;20062;-73
2021/07/10 08:39:46;;;;;;;17.58;12.07;;;21.10;77.80;;;;;;5058942;28;20503;-75
2021/07/10 08:42:12;;;;;;;20.17;12.63;;;21.10;78.20;;;;;;5076717;28;20044;-73
2021/07/10 08:44:40;;;;;;;16.90;12.00;;;21.20;77.30;;;;;;5075709;28;20357;-73
2021/07/10 08:47:13;;;;;;;16.38;11.10;;;21.30;76.90;;;;;;5058756;28;20116;-73
2021/07/10 08:49:39;;;;;;;14.50;10.48;;;21.30;76.30;;;;;;5076658;28;20021;-73
2021/07/10 08:52:05;;;;;;;15.00;9.25;;;21.40;75.70;;;;;;5071170;28;20115;-72
2021/07/10 08:54:32;;;;;;;13.25;7.82;;;21.40;75.30;;;;;;5042423;28;20488;-73
2021/07/10 08:56:57;;;;;;;14.82;7.85;;;21.50;74.60;;;;;;5076604;28;20519;-73
2021/07/10 08:59:24;;;;;;;16.20;9.32;;;21.50;73.00;;;;;;5075160;28;20123;-73
2021/07/10 09:01:53;;;;;;;13.18;9.00;;;21.60;72.70;;;;;;5076653;28;20413;-73
2021/07/10 09:04:20;;;;;;;14.98;8.85;;;21.60;72.40;;;;;;5075262;28;20027;-73
2021/07/10 09:06:46;;;;;;;9.23;5.90;;;21.80;72.40;;;;;;5075936;28;20021;-74
2021/07/10 09:09:12;;;;;;;9.73;6.95;;;21.80;71.70;;;;;;5075980;28;20064;-73
2021/07/10 09:11:39;;;;;;;12.02;6.90;;;21.90;70.60;;;;;;5076498;28;20063;-73
2021/07/10 09:14:05;;;;;;;12.13;6.47;;;21.90;69.50;;;;;;5061447;28;20040;-73
2021/07/10 09:16:36;;;;;;;9.82;5.35;;;22.00;69.30;;;;;;5038391;28;20381;-74
2021/07/10 09:19:07;;;;;;;8.07;4.53;;;22.00;68.50;;;;;;5055877;28;20041;-72
2021/07/10 09:21:45;;;;;;;7.63;4.75;;;22.10;68.10;;;;;;5056268;28;20021;-73
2021/07/10 09:24:32;;;;;;;9.85;5.65;;;22.10;67.60;;;;;;5054880;28;20021;-74
2021/07/10 09:27:04;;;;;;;9.43;5.40;;;22.20;67.20;;;;;;5054449;28;20377;-77
2021/07/10 09:29:35;;;;;;;9.35;5.82;;;22.20;67.30;;;;;;5054385;28;20025;-76
2021/07/10 09:32:05;;;;;;;11.30;6.07;;;22.30;67.10;;;;;;5055945;28;20025;-76
2021/07/10 09:34:33;;;;;;;9.05;6.00;;;22.40;66.80;;;;;;5054475;28;20020;-77
2021/07/10 09:37:09;;;;;;;10.02;4.95;;;22.60;66.90;;;;;;5054505;28;20051;-77
2021/07/10 09:39:42;;;;;;;7.40;4.35;;;22.70;66.30;;;;;;5054422;28;20032;-77
2021/07/10 09:42:08;;;;;;;8.23;4.75;;;22.80;65.50;;;;;;5054287;28;20481;-77
2021/07/10 09:44:53;;;;;;;9.00;5.00;;;22.90;64.70;;;;;;5053465;28;20112;-79
2021/07/10 09:47:33;;;;;;;8.00;5.05;;;23.00;64.10;;;;;;5055335;28;20032;-79
2021/07/10 09:50:00;;;;;;;9.88;5.97;;;23.00;64.00;;;;;;5055399;28;20095;-77
2021/07/10 09:52:30;;;;;;;9.07;6.10;;;23.10;64.00;;;;;;5055695;28;20386;-77
2021/07/10 09:55:05;;;;;;;13.63;6.53;;;23.20;64.00;;;;;;5066448;28;20087;-76
2021/07/10 09:57:34;;;;;;;12.68;6.32;;;23.30;63.70;;;;;;5055588;28;20029;-76
2021/07/10 10:00:06;;;;;;;9.52;6.38;;;23.30;63.50;;;;;;5055147;28;20041;-75
2021/07/10 10:02:34;;;;;;;10.32;6.47;;;23.30;63.30;;;;;;5055266;28;20487;-76
2021/07/10 10:05:10;;;;;;;10.60;7.03;;;23.40;63.80;;;;;;5055601;28;20029;-77
2021/07/10 10:07:46;;;;;;;9.60;6.25;;;23.50;63.20;;;;;;5055665;28;20551;-76
2021/07/10 10:10:23;;;;;;;9.63;6.50;;;23.60;63.20;;;;;;5055570;28;20343;-76
2021/07/10 10:13:04;;;;;;;8.55;5.55;;;23.70;63.10;;;;;;5055029;28;20024;-77
2021/07/10 10:15:33;;;;;;;10.20;6.68;;;23.80;63.00;;;;;;5055253;28;20044;-76
2021/07/10 10:18:00;;;;;;;10.63;6.30;;;23.90;62.80;;;;;;5055326;28;20041;-76
2021/07/10 10:20:26;;;;;;;11.43;7.25;;;24.00;62.50;;;;;;5053633;28;20028;-77
2021/07/10 10:22:52;;;;;;;10.73;6.65;;;24.10;61.60;;;;;;5054730;28;20381;-77
2021/07/10 10:25:18;;;;;;;10.20;6.90;;;24.10;61.00;;;;;;5037418;28;20056;-76
2021/07/10 10:27:48;;;;;;;10.20;7.45;;;24.20;60.90;;;;;;5054119;28;20021;-76
2021/07/10 10:30:15;;;;;;;11.82;8.05;;;24.20;60.80;;;;;;5054835;28;20087;-76
2021/07/10 10:32:43;;;;;;;10.77;7.90;;;24.40;60.70;;;;;;5054704;28;20504;-77
2021/07/10 10:35:09;;;;;;;10.82;7.07;;;24.50;60.10;;;;;;5054670;28;20104;-76
2021/07/10 10:37:37;;;;;;;10.27;7.40;;;24.60;59.90;;;;;;5054535;28;20043;-78
2021/07/10 10:40:06;;;;;;;11.10;7.90;;;24.70;59.70;;;;;;5054751;28;20025;-76
2021/07/10 10:42:32;;;;;;;12.50;7.75;;;24.90;59.50;;;;;;5045412;28;20474;-77
2021/07/10 10:45:00;;;;;;;10.52;7.78;;;25.10;59.10;;;;;;5033481;28;20108;-77
2021/07/10 10:47:45;;;;;;;18.83;8.82;;;25.30;58.90;;;;;;5034916;28;20117;-77
2021/07/10 10:50:20;;;;;;;10.75;7.30;;;25.60;58.30;;;;;;5033587;28;20057;-79
2021/07/10 10:52:47;;;;;;;10.35;7.32;;;25.90;57.90;;;;;;5033420;28;20041;-77
2021/07/10 10:55:28;;;;;;;10.57;7.25;;;26.10;57.40;;;;;;5016433;28;20021;-76
2021/07/10 10:58:17;;;;;;;9.98;7.85;;;26.40;57.10;;;;;;5034631;28;20041;-76
2021/07/10 11:01:01;;;;;;;11.50;7.35;;;26.60;56.50;;;;;;5034229;28;20113;-76
2021/07/10 11:03:37;;;;;;;9.98;6.97;;;26.60;56.50;;;;;;5034106;28;20022;-76
2021/07/10 11:06:03;;;;;;;10.32;6.95;;;26.70;56.10;;;;;;5034344;28;20029;-76
2021/07/10 11:08:29;;;;;;;10.27;7.57;;;26.50;55.90;;;;;;5033296;28;20022;-76
2021/07/10 11:10:58;;;;;;;10.20;6.78;;;26.50;55.80;;;;;;5032612;28;20389;-75
2021/07/10 11:13:41;;;;;;;11.95;7.35;;;26.40;55.80;;;;;;5032738;28;20060;-76
2021/07/10 11:16:15;;;;;;;10.07;6.70;;;26.40;55.50;;;;;;5043001;28;20033;-76
2021/07/10 11:19:39;;;;;;;12.35;7.30;;;26.40;55.80;;;;;;5052657;28;20070;-75
2021/07/10 11:22:04;;;;;;;9.80;6.30;;;26.50;55.30;;;;;;5050909;28;20043;-75
2021/07/10 11:24:30;;;;;;;7.70;5.68;;;26.60;55.60;;;;;;5032948;28;20123;-77
2021/07/10 11:26:55;;;;;;;10.48;6.18;;;26.60;55.50;;;;;;5044676;28;20064;-76
2021/07/10 11:29:21;;;;;;;10.38;6.47;;;26.70;55.60;;;;;;5053395;28;20033;-76
2021/07/10 11:31:47;;;;;;;11.77;6.82;;;26.70;55.50;;;;;;5053203;28;20063;-77
2021/07/10 11:34:18;;;;;;;11.18;7.38;;;26.80;55.30;;;;;;5052654;28;20021;-76
2021/07/10 11:36:53;;;;;;;8.65;6.25;;;26.70;55.20;;;;;;5052449;28;20044;-77
2021/07/10 11:39:24;;;;;;;11.07;6.80;;;26.60;55.10;;;;;;5052315;28;20025;-76
2021/07/10 11:41:51;;;;;;;8.65;6.75;;;26.50;54.70;;;;;;5053508;28;20496;-77
2021/07/10 11:44:24;;;;;;;9.85;6.65;;;26.50;54.70;;;;;;5052864;28;20532;-77
2021/07/10 11:46:55;;;;;;;11.80;6.38;;;26.90;54.80;;;;;;5053856;28;20029;-77
2021/07/10 11:49:55;;;;;;;11.18;5.60;;;27.30;54.40;;;;;;5053615;28;20108;-76
2021/07/10 11:52:21;;;;;;;6.70;4.90;;;27.50;52.80;;;;;;5049356;28;20045;-77
2021/07/10 11:54:58;;;;;;;8.35;5.55;;;27.70;53.20;;;;;;5034011;28;20031;-77
2021/07/10 11:57:35;;;;;;;7.25;4.68;;;27.80;52.90;;;;;;5032034;28;20485;-77
2021/07/10 12:00:02;;;;;;;7.18;4.53;;;28.00;52.60;;;;;;5033572;28;20022;-77
2021/07/10 12:02:28;;;;;;;5.05;3.42;;;28.20;51.70;;;;;;5033455;28;20057;-77
2021/07/10 12:05:14;;;;;;;6.03;3.20;;;28.40;50.70;;;;;;5032154;28;20029;-77
2021/07/10 12:07:52;;;;;;;5.30;2.97;;;28.70;49.30;;;;;;5035524;28;20414;-76
2021/07/10 12:10:23;;;;;;;8.00;2.92;;;28.90;49.10;;;;;;5037376;28;20025;-77
2021/07/10 12:13:18;;;;;;;4.60;2.92;;;29.20;48.20;;;;;;5036402;28;20036;-77
2021/07/10 12:15:53;;;;;;;5.68;3.63;;;29.80;46.70;;;;;;5040180;28;20079;-77
2021/07/10 12:18:20;;;;;;;4.50;2.85;;;30.10;46.10;;;;;;5037198;28;20096;-76
2021/07/10 12:20:59;;;;;;;6.03;4.20;;;30.60;46.10;;;;;;5037314;28;20479;-78
2021/07/10 12:23:55;;;;;;;5.00;3.47;;;31.00;45.50;;;;;;5037722;28;20021;-77
2021/07/10 12:26:25;;;;;;;5.22;3.63;;;31.50;44.50;;;;;;5037195;28;20061;-78
2021/07/10 12:28:54;;;;;;;4.70;2.90;;;31.80;45.00;;;;;;5037149;28;20022;-79
2021/07/10 12:31:26;;;;;;;6.05;3.90;;;32.20;44.70;;;;;;5036074;28;20480;-77
2021/07/10 12:33:54;;;;;;;5.88;4.43;;;32.50;43.10;;;;;;5035485;28;20017;-77